Time;durP1;ratioP1;P1;durP2;ratioP2;P2;SDS_P1;SDS_P2;PMS_P1;PMS_P2;Temp;Humidity;BMP_temperature;BMP_pressure;BME280_temperature;BME280_humidity;BME280_pressure;Samples;Min_cycle;Max_cycle;Signal;HPM_P1;HPM_P2
2024/01/15 00:01:06;;;;;;;39.03;16.13;;;;;;;;;;4956497;28;20194;-84
2024/01/15 00:03:32;;;;;;;36.93;16.43;;;;;;;;;;4913200;28;20203;-84
2024/01/15 00:05:58;;;;;;;39.30;16.30;;;;;;;;;;4921056;28;20194;-77
2024/01/15 00:08:24;;;;;;;37.73;16.30;;;;;;;;;;4842867;28;20900;-77
2024/01/15 00:10:50;;;;;;;36.73;16.33;;;;;;;;;;4847173;28;20494;-77
2024/01/15 00:13:17;;;;;;;30.47;14.23;;;;;;;;;;4895874;28;20306;-84
2024/01/15 00:15:43;;;;;;;32.13;15.67;;;;;;;;;;4937277;28;22293;-77
2024/01/15 00:18:09;;;;;;;37.07;15.90;;;;;;;;;;4949829;28;20560;-77
2024/01/15 00:20:35;;;;;;;34.60;16.00;;;;;;;;;;4891518;28;20718;-77
2024/01/15 00:23:02;;;;;;;33.27;15.47;;;;;;;;;;4855891;28;20301;-79
2024/01/15 00:25:28;;;;;;;37.23;16.30;;;;;;;;;;4722891;28;21828;-77
2024/01/15 00:27:54;;;;;;;37.70;16.30;;;;;;;;;;4940235;28;21150;-78
2024/01/15 00:30:20;;;;;;;30.80;14.50;;;;;;;;;;4918046;28;20671;-77
2024/01/15 00:32:47;;;;;;;33.33;15.00;;;;;;;;;;4826053;28;20688;-78
2024/01/15 00:35:13;;;;;;;34.77;15.17;;;;;;;;;;4807162;28;20213;-77
2024/01/15 00:37:39;;;;;;;34.80;14.97;;;;;;;;;;4834949;28;20736;-78
2024/01/15 00:40:07;;;;;;;31.50;14.17;;;;;;;;;;4955332;28;20268;-77
2024/01/15 00:42:34;;;;;;;34.37;14.80;;;;;;;;;;4872380;28;20221;-76
2024/01/15 00:45:00;;;;;;;32.13;14.97;;;;;;;;;;4932551;28;20198;-78
2024/01/15 00:47:26;;;;;;;31.83;14.10;;;;;;;;;;4834220;28;20436;-78
2024/01/15 00:49:52;;;;;;;28.67;13.33;;;;;;;;;;4825739;28;20190;-79
2024/01/15 00:52:19;;;;;;;31.13;14.53;;;;;;;;;;4854517;28;20210;-76
2024/01/15 00:54:45;;;;;;;35.63;14.40;;;;;;;;;;4935765;28;22304;-78
2024/01/15 00:57:11;;;;;;;32.20;14.23;;;;;;;;;;4902381;28;20884;-79
2024/01/15 00:59:37;;;;;;;30.57;14.20;;;;;;;;;;4814872;28;20191;-78
2024/01/15 01:02:04;;;;;;;29.37;13.23;;;;;;;;;;4822131;28;20189;-78
2024/01/15 01:04:30;;;;;;;33.50;14.10;;;;;;;;;;4823170;28;21823;-79
2024/01/15 01:06:56;;;;;;;29.93;14.17;;;;;;;;;;4912234;28;20638;-78
2024/01/15 01:09:22;;;;;;;33.17;14.67;;;;;;;;;;4899823;28;20194;-77
2024/01/15 01:11:48;;;;;;;30.53;13.97;;;;;;;;;;4835798;28;20425;-78
2024/01/15 01:14:14;;;;;;;31.70;14.33;;;;;;;;;;4804144;28;20267;-79
2024/01/15 01:16:40;;;;;;;32.13;14.50;;;;;;;;;;4824994;28;20202;-78
2024/01/15 01:19:07;;;;;;;29.87;13.77;;;;;;;;;;4929191;28;20210;-77
2024/01/15 01:21:34;;;;;;;29.93;14.03;;;;;;;;;;4859702;28;20551;-77
2024/01/15 01:24:00;;;;;;;28.80;13.60;;;;;;;;;;4926397;28;20214;-78
2024/01/15 01:26:26;;;;;;;30.10;13.93;;;;;;;;;;4831342;28;20208;-78
2024/01/15 01:28:52;;;;;;;31.37;14.60;;;;;;;;;;4920883;28;20194;-81
2024/01/15 01:31:18;;;;;;;32.27;14.57;;;;;;;;;;4928500;28;20553;-77
2024/01/15 01:33:44;;;;;;;34.17;14.47;;;;;;;;;;5013531;28;20250;-79
2024/01/15 01:36:10;;;;;;;28.37;13.37;;;;;;;;;;4926241;28;20202;-78
2024/01/15 01:38:37;;;;;;;29.83;13.53;;;;;;;;;;4922563;28;20321;-79
2024/01/15 01:41:03;;;;;;;33.10;14.80;;;;;;;;;;4920996;28;20205;-79
2024/01/15 01:43:29;;;;;;;31.23;14.77;;;;;;;;;;4891809;28;21649;-79
2024/01/15 01:45:58;;;;;;;35.00;15.00;;;;;;;;;;5032926;28;20321;-79
2024/01/15 01:48:25;;;;;;;29.33;13.80;;;;;;;;;;4907657;28;20341;-77
2024/01/15 01:50:51;;;;;;;31.57;14.83;;;;;;;;;;4919837;28;20217;-78
2024/01/15 01:53:18;;;;;;;34.90;15.10;;;;;;;;;;4917786;28;20233;-78
2024/01/15 01:55:44;;;;;;;33.07;14.70;;;;;;;;;;4920474;28;20179;-79
2024/01/15 01:58:10;;;;;;;39.17;18.33;;;;;;;;;;4998716;28;20187;-77
2024/01/15 02:00:36;;;;;;;35.47;16.13;;;;;;;;;;4944907;28;20602;-79
2024/01/15 02:03:03;;;;;;;32.77;15.97;;;;;;;;;;4920741;28;20202;-79
2024/01/15 02:05:29;;;;;;;34.20;15.17;;;;;;;;;;4925212;28;20191;-79
2024/01/15 02:07:55;;;;;;;33.73;15.53;;;;;;;;;;4932918;28;20198;-79
2024/01/15 02:10:22;;;;;;;33.57;15.23;;;;;;;;;;4919885;28;20205;-79
2024/01/15 02:12:48;;;;;;;31.47;14.07;;;;;;;;;;5027142;28;20213;-79
2024/01/15 02:15:15;;;;;;;32.07;14.53;;;;;;;;;;4928843;28;20709;-79
2024/01/15 02:17:59;;;;;;;34.20;16.00;;;;;;;;;;4937441;28;20186;-79
2024/01/15 02:20:26;;;;;;;32.97;15.67;;;;;;;;;;4929067;28;20217;-79
2024/01/15 02:22:52;;;;;;;37.40;15.93;;;;;;;;;;4923119;28;20183;-79
2024/01/15 02:25:19;;;;;;;36.47;15.17;;;;;;;;;;4943070;28;20217;-77
2024/01/15 02:27:45;;;;;;;35.90;15.87;;;;;;;;;;5028388;28;20557;-78
2024/01/15 02:30:12;;;;;;;36.50;15.40;;;;;;;;;;4905085;28;20190;-79
2024/01/15 02:32:39;;;;;;;35.07;15.87;;;;;;;;;;4925198;28;20178;-79
2024/01/15 02:35:05;;;;;;;33.20;15.20;;;;;;;;;;4923455;28;20275;-78
2024/01/15 02:37:31;;;;;;;37.70;16.60;;;;;;;;;;4908640;28;21656;-78
2024/01/15 02:39:57;;;;;;;34.27;15.03;;;;;;;;;;5034606;28;20206;-78
2024/01/15 02:42:23;;;;;;;33.67;15.23;;;;;;;;;;4908236;28;20184;-78
2024/01/15 02:44:49;;;;;;;33.30;15.43;;;;;;;;;;4931462;28;20212;-78
2024/01/15 02:47:15;;;;;;;34.73;15.40;;;;;;;;;;4910592;28;20769;-79
2024/01/15 02:49:41;;;;;;;37.97;15.30;;;;;;;;;;4905445;28;20195;-79
2024/01/15 02:52:08;;;;;;;34.23;14.90;;;;;;;;;;5029143;28;20229;-77
2024/01/15 02:54:34;;;;;;;33.30;15.37;;;;;;;;;;4922801;28;20199;-79
2024/01/15 02:57:00;;;;;;;31.20;14.30;;;;;;;;;;4911697;28;20206;-79
2024/01/15 02:59:26;;;;;;;32.80;14.97;;;;;;;;;;4919965;28;21263;-79
2024/01/15 03:01:52;;;;;;;32.43;14.70;;;;;;;;;;4907906;28;20349;-79
2024/01/15 03:04:18;;;;;;;33.93;14.80;;;;;;;;;;4929407;28;20203;-76
2024/01/15 03:06:45;;;;;;;34.80;15.63;;;;;;;;;;5024805;28;20194;-78
2024/01/15 03:09:11;;;;;;;31.53;13.87;;;;;;;;;;4926916;28;20213;-79
2024/01/15 03:11:38;;;;;;;34.77;14.73;;;;;;;;;;4930086;28;20239;-79
2024/01/15 03:14:04;;;;;;;30.60;14.33;;;;;;;;;;4929514;28;20204;-77
2024/01/15 03:16:31;;;;;;;31.97;15.23;;;;;;;;;;4930605;28;21546;-79
2024/01/15 03:18:57;;;;;;;31.27;14.13;;;;;;;;;;5031552;28;20222;-78
2024/01/15 03:21:23;;;;;;;29.73;14.20;;;;;;;;;;4930396;28;20182;-78
2024/01/15 03:23:49;;;;;;;29.83;13.50;;;;;;;;;;4925330;28;20221;-79
2024/01/15 03:26:15;;;;;;;34.13;15.33;;;;;;;;;;4909775;28;20614;-79
2024/01/15 03:28:41;;;;;;;32.03;14.27;;;;;;;;;;4932531;28;20194;-79
2024/01/15 03:31:08;;;;;;;31.87;14.33;;;;;;;;;;5013802;28;20603;-77
2024/01/15 03:33:34;;;;;;;30.43;13.63;;;;;;;;;;4940517;28;20198;-78
2024/01/15 03:36:00;;;;;;;35.53;14.97;;;;;;;;;;5030118;28;20205;-78
2024/01/15 03:38:28;;;;;;;31.53;14.20;;;;;;;;;;4929211;28;20178;-78
2024/01/15 03:40:55;;;;;;;31.97;13.43;;;;;;;;;;4922783;28;20270;-79
2024/01/15 03:43:21;;;;;;;32.20;13.80;;;;;;;;;;4933592;28;20202;-76
2024/01/15 03:45:47;;;;;;;33.70;14.93;;;;;;;;;;5010746;28;20274;-79
2024/01/15 03:48:13;;;;;;;28.40;12.83;;;;;;;;;;4905736;28;20182;-79
2024/01/15 03:50:39;;;;;;;27.33;12.40;;;;;;;;;;4929769;28;20269;-78
2024/01/15 03:53:05;;;;;;;29.23;13.17;;;;;;;;;;4922282;28;20613;-78
2024/01/15 03:55:31;;;;;;;29.37;13.97;;;;;;;;;;4911158;28;21981;-78
2024/01/15 03:57:57;;;;;;;33.43;14.67;;;;;;;;;;5029592;28;20196;-78
2024/01/15 04:00:24;;;;;;;32.70;15.20;;;;;;;;;;4921451;28;20616;-78
2024/01/15 04:02:50;;;;;;;31.87;14.67;;;;;;;;;;4921473;28;20179;-78
2024/01/15 04:05:16;;;;;;;28.33;13.43;;;;;;;;;;4927336;28;20206;-78
2024/01/15 04:07:42;;;;;;;28.63;13.80;;;;;;;;;;4923632;28;20203;-78
2024/01/15 04:10:09;;;;;;;33.57;14.93;;;;;;;;;;5005449;28;20202;-78
2024/01/15 04:12:35;;;;;;;32.17;15.93;;;;;;;;;;4940737;28;20261;-78
2024/01/15 04:15:01;;;;;;;31.47;14.67;;;;;;;;;;4929387;28;20198;-78
2024/01/15 04:17:28;;;;;;;30.73;14.20;;;;;;;;;;4906287;28;20228;-78
2024/01/15 04:19:54;;;;;;;30.60;14.40;;;;;;;;;;4912282;28;20226;-78
2024/01/15 04:22:22;;;;;;;30.80;16.80;;;;;;;;;;4939692;28;20421;-78
2024/01/15 04:24:48;;;;;;;27.23;14.17;;;;;;;;;;5047699;28;20210;-78
2024/01/15 04:27:14;;;;;;;31.00;14.73;;;;;;;;;;4930471;28;20259;-78
2024/01/15 04:29:41;;;;;;;28.53;13.70;;;;;;;;;;4928162;28;20191;-78
2024/01/15 04:32:07;;;;;;;33.93;15.37;;;;;;;;;;4926519;28;20682;-79
2024/01/15 04:34:33;;;;;;;31.83;14.10;;;;;;;;;;4928745;28;21472;-78
2024/01/15 04:36:59;;;;;;;32.50;13.70;;;;;;;;;;5009989;28;20562;-78
2024/01/15 04:39:26;;;;;;;31.67;13.40;;;;;;;;;;4909044;28;20623;-79
2024/01/15 04:41:52;;;;;;;28.60;14.40;;;;;;;;;;4912453;28;20281;-78
2024/01/15 04:44:19;;;;;;;29.15;14.77;;;;;;;;;;4907874;28;20433;-79
2024/01/15 04:46:45;;;;;;;28.17;12.97;;;;;;;;;;4924522;28;20187;-79
2024/01/15 04:49:11;;;;;;;31.40;14.17;;;;;;;;;;5012905;28;20190;-79
2024/01/15 04:51:37;;;;;;;28.20;13.43;;;;;;;;;;4940206;28;20187;-78
2024/01/15 04:54:04;;;;;;;27.37;13.80;;;;;;;;;;5004974;28;20551;-79
2024/01/15 04:56:30;;;;;;;28.50;13.77;;;;;;;;;;4926444;28;20406;-78
2024/01/15 04:58:57;;;;;;;26.13;12.63;;;;;;;;;;4930473;28;20575;-78
2024/01/15 05:01:23;;;;;;;27.00;13.07;;;;;;;;;;4908509;28;20198;-79
2024/01/15 05:03:49;;;;;;;28.57;13.47;;;;;;;;;;5015361;28;20225;-78
2024/01/15 05:06:15;;;;;;;27.63;13.00;;;;;;;;;;4927264;28;20375;-78
2024/01/15 05:08:42;;;;;;;30.80;14.00;;;;;;;;;;4924186;28;20558;-79
2024/01/15 05:11:08;;;;;;;29.03;13.67;;;;;;;;;;4906855;28;20201;-79
2024/01/15 05:13:34;;;;;;;27.03;12.73;;;;;;;;;;4907588;28;21454;-79
2024/01/15 05:16:00;;;;;;;25.63;12.60;;;;;;;;;;5021856;28;20193;-79
2024/01/15 05:18:26;;;;;;;26.40;12.73;;;;;;;;;;4925103;28;20528;-78
2024/01/15 05:20:52;;;;;;;27.97;13.30;;;;;;;;;;4909727;28;20214;-79
2024/01/15 05:23:19;;;;;;;25.73;13.27;;;;;;;;;;4910754;28;20214;-79
2024/01/15 05:25:45;;;;;;;26.60;12.63;;;;;;;;;;5017608;28;20195;-78
2024/01/15 05:28:11;;;;;;;26.33;12.60;;;;;;;;;;5018491;28;20228;-79
2024/01/15 05:30:37;;;;;;;28.93;13.17;;;;;;;;;;4951194;28;20563;-78
2024/01/15 05:33:04;;;;;;;29.00;13.17;;;;;;;;;;4927223;28;20258;-79
2024/01/15 05:35:30;;;;;;;28.63;12.63;;;;;;;;;;4916204;28;20214;-78
2024/01/15 05:37:56;;;;;;;29.30;13.63;;;;;;;;;;4919977;28;20640;-79
2024/01/15 05:40:22;;;;;;;27.03;12.23;;;;;;;;;;4925634;28;20718;-78
2024/01/15 05:42:48;;;;;;;30.83;13.40;;;;;;;;;;5028086;28;20225;-79
2024/01/15 05:45:15;;;;;;;25.77;13.30;;;;;;;;;;4971683;28;20315;-79
2024/01/15 05:47:41;;;;;;;25.27;13.13;;;;;;;;;;4921325;28;20670;-78
2024/01/15 05:50:07;;;;;;;28.27;13.77;;;;;;;;;;4924777;28;20185;-79
2024/01/15 05:52:33;;;;;;;25.87;12.30;;;;;;;;;;4927789;28;20515;-78
2024/01/15 05:54:59;;;;;;;29.47;13.23;;;;;;;;;;5032335;28;20217;-78
2024/01/15 05:57:25;;;;;;;28.30;13.47;;;;;;;;;;4971725;28;20216;-78
2024/01/15 05:59:52;;;;;;;23.83;12.37;;;;;;;;;;4925915;28;20248;-78
2024/01/15 06:02:18;;;;;;;25.63;12.80;;;;;;;;;;4929440;28;20209;-78
2024/01/15 06:04:44;;;;;;;25.00;12.13;;;;;;;;;;4931336;28;20615;-78
2024/01/15 06:07:11;;;;;;;25.25;13.38;;;;;;;;;;5011231;28;21123;-79
2024/01/15 06:09:38;;;;;;;26.77;13.53;;;;;;;;;;4937510;28;20453;-79
2024/01/15 06:12:04;;;;;;;28.80;13.53;;;;;;;;;;4932975;28;20373;-78
2024/01/15 06:14:31;;;;;;;25.00;12.53;;;;;;;;;;4926845;28;20225;-78
2024/01/15 06:16:57;;;;;;;26.40;13.33;;;;;;;;;;4938718;28;20715;-78
2024/01/15 06:19:23;;;;;;;29.83;14.13;;;;;;;;;;4927628;28;20236;-77
2024/01/15 06:21:49;;;;;;;29.33;14.90;;;;;;;;;;5026672;28;20277;-77
2024/01/15 06:24:17;;;;;;;28.27;13.90;;;;;;;;;;4929536;28;20202;-79
2024/01/15 06:26:44;;;;;;;26.23;13.10;;;;;;;;;;4933770;28;20184;-79
2024/01/15 06:29:10;;;;;;;29.43;13.63;;;;;;;;;;4931607;28;20190;-79
2024/01/15 06:31:36;;;;;;;27.70;13.37;;;;;;;;;;4978429;28;21402;-79
2024/01/15 06:34:02;;;;;;;26.27;13.33;;;;;;;;;;5028548;28;20226;-82
2024/01/15 06:36:28;;;;;;;24.97;13.30;;;;;;;;;;4912979;28;20553;-81
2024/01/15 06:38:54;;;;;;;28.07;13.37;;;;;;;;;;4915856;28;20195;-81
2024/01/15 06:41:20;;;;;;;27.52;15.02;;;;;;;;;;4931714;28;20415;-81
2024/01/15 06:43:46;;;;;;;28.80;14.00;;;;;;;;;;4936820;28;20203;-81
2024/01/15 06:46:13;;;;;;;27.40;13.87;;;;;;;;;;5021779;28;20190;-80
2024/01/15 06:48:39;;;;;;;26.93;13.40;;;;;;;;;;4981072;28;20243;-77
2024/01/15 06:51:05;;;;;;;27.75;15.45;;;;;;;;;;4985626;28;20436;-78
2024/01/15 06:53:31;;;;;;;26.13;14.17;;;;;;;;;;4934262;28;20213;-79
2024/01/15 06:55:57;;;;;;;25.87;13.30;;;;;;;;;;4922676;28;20186;-80
2024/01/15 06:58:23;;;;;;;26.93;13.50;;;;;;;;;;4937954;28;20210;-78
2024/01/15 07:00:50;;;;;;;28.57;14.53;;;;;;;;;;5028565;28;20550;-78
2024/01/15 07:03:16;;;;;;;23.87;13.07;;;;;;;;;;4911933;28;20681;-79
2024/01/15 07:05:42;;;;;;;27.58;13.40;;;;;;;;;;4916354;28;20328;-78
2024/01/15 07:08:08;;;;;;;27.17;13.57;;;;;;;;;;4926030;28;20213;-79
2024/01/15 07:10:34;;;;;;;28.80;13.43;;;;;;;;;;4934893;28;21657;-78
2024/01/15 07:13:00;;;;;;;24.60;13.60;;;;;;;;;;5016734;28;20206;-78
2024/01/15 07:15:26;;;;;;;25.67;13.00;;;;;;;;;;4921460;28;20179;-78
2024/01/15 07:17:53;;;;;;;27.07;13.53;;;;;;;;;;4928740;28;20244;-78
2024/01/15 07:20:19;;;;;;;25.23;13.43;;;;;;;;;;4929398;28;20210;-77
2024/01/15 07:22:45;;;;;;;28.70;14.47;;;;;;;;;;4932537;28;20269;-77
2024/01/15 07:25:12;;;;;;;26.37;14.00;;;;;;;;;;5015925;28;20191;-72
2024/01/15 07:27:39;;;;;;;27.80;13.97;;;;;;;;;;4952775;28;20195;-76
2024/01/15 07:30:06;;;;;;;27.40;13.17;;;;;;;;;;4883566;28;20174;-76
2024/01/15 07:32:32;;;;;;;28.60;14.30;;;;;;;;;;4926535;28;20190;-76
2024/01/15 07:34:59;;;;;;;25.63;13.47;;;;;;;;;;4923369;28;20247;-76
2024/01/15 07:37:25;;;;;;;25.60;14.23;;;;;;;;;;4926978;28;20240;-76
2024/01/15 07:39:51;;;;;;;28.20;13.30;;;;;;;;;;5026653;28;20530;-76
2024/01/15 07:42:17;;;;;;;26.57;13.53;;;;;;;;;;4921396;28;20178;-76
2024/01/15 07:44:44;;;;;;;26.87;14.00;;;;;;;;;;4922248;28;20221;-76
2024/01/15 07:47:11;;;;;;;27.07;13.63;;;;;;;;;;4922282;28;20175;-76
2024/01/15 07:49:37;;;;;;;30.13;14.73;;;;;;;;;;4919793;28;21763;-76
2024/01/15 07:52:04;;;;;;;27.90;14.13;;;;;;;;;;5007806;28;20627;-76
2024/01/15 07:54:30;;;;;;;25.07;13.60;;;;;;;;;;4921112;28;20207;-76
2024/01/15 07:57:00;;;;;;;25.33;13.30;;;;;;;;;;4920086;28;20185;-76
2024/01/15 07:59:27;;;;;;;28.30;14.00;;;;;;;;;;4920364;28;20289;-76
2024/01/15 08:01:53;;;;;;;28.63;14.23;;;;;;;;;;4918898;28;20198;-76
2024/01/15 08:04:20;;;;;;;29.30;14.23;;;;;;;;;;4958520;28;20205;-74
2024/01/15 08:06:46;;;;;;;27.50;14.83;;;;;;;;;;4987204;28;20253;-76
2024/01/15 08:09:12;;;;;;;29.73;14.63;;;;;;;;;;4918912;28;20190;-76
2024/01/15 08:11:42;;;;;;;31.97;15.90;;;;;;;;;;4902497;28;20187;-76
2024/01/15 08:14:09;;;;;;;26.20;14.07;;;;;;;;;;4915549;28;20336;-76
2024/01/15 08:16:35;;;;;;;27.20;14.20;;;;;;;;;;4996842;28;20198;-76
2024/01/15 08:19:01;;;;;;;27.53;13.97;;;;;;;;;;5023706;28;20269;-76
2024/01/15 08:21:29;;;;;;;28.37;14.47;;;;;;;;;;4921539;28;20261;-76
2024/01/15 08:24:03;;;;;;;28.00;13.93;;;;;;;;;;4924833;28;20210;-76
2024/01/15 08:26:29;;;;;;;25.07;13.37;;;;;;;;;;4923808;28;20282;-76
2024/01/15 08:28:55;;;;;;;26.40;14.00;;;;;;;;;;4925703;28;20620;-76
2024/01/15 08:31:22;;;;;;;26.83;15.20;;;;;;;;;;4942032;28;20185;-75
2024/01/15 08:33:48;;;;;;;28.70;14.40;;;;;;;;;;5019608;28;20744;-76
2024/01/15 08:36:14;;;;;;;26.07;13.90;;;;;;;;;;4918955;28;20187;-76
2024/01/15 08:38:40;;;;;;;31.17;15.00;;;;;;;;;;4920866;28;20186;-76
2024/01/15 08:41:08;;;;;;;31.57;14.53;;;;;;;;;;4923988;28;20693;-76
2024/01/15 08:43:35;;;;;;;28.23;14.87;;;;;;;;;;4925248;28;22165;-76
2024/01/15 08:46:01;;;;;;;28.67;15.03;;;;;;;;;;5023628;28;20262;-76
2024/01/15 08:48:28;;;;;;;28.23;14.00;;;;;;;;;;4939461;28;20253;-76
2024/01/15 08:50:54;;;;;;;28.00;14.83;;;;;;;;;;4927324;28;20186;-76
2024/01/15 08:53:21;;;;;;;26.23;13.93;;;;;;;;;;4907887;28;20562;-76
2024/01/15 08:55:47;;;;;;;30.87;15.77;;;;;;;;;;4923053;28;20601;-76
2024/01/15 08:58:14;;;;;;;28.33;15.17;;;;;;;;;;5010725;28;20175;-72
2024/01/15 09:00:40;;;;;;;29.17;15.03;;;;;;;;;;4986563;28;20985;-74
2024/01/15 09:03:08;;;;;;;27.57;14.77;;;;;;;;;;4955830;28;20229;-76
2024/01/15 09:05:34;;;;;;;28.13;14.67;;;;;;;;;;4932947;28;20258;-75
2024/01/15 09:08:00;;;;;;;27.53;14.67;;;;;;;;;;4924104;28;20631;-75
2024/01/15 09:10:26;;;;;;;27.30;15.07;;;;;;;;;;4965236;28;20221;-75
2024/01/15 09:12:52;;;;;;;30.33;14.97;;;;;;;;;;5026549;28;20198;-76
2024/01/15 09:15:19;;;;;;;30.70;16.20;;;;;;;;;;5009284;28;20198;-76
2024/01/15 09:17:46;;;;;;;28.67;15.10;;;;;;;;;;4913276;28;20777;-75
2024/01/15 09:20:12;;;;;;;26.90;15.13;;;;;;;;;;4928138;28;20201;-75
2024/01/15 09:22:42;;;;;;;27.50;15.13;;;;;;;;;;4929014;28;22308;-75
2024/01/15 09:25:11;;;;;;;29.30;15.87;;;;;;;;;;5025182;28;20210;-75
2024/01/15 09:27:38;;;;;;;28.60;15.13;;;;;;;;;;4912709;28;20179;-75
2024/01/15 09:30:05;;;;;;;28.13;16.33;;;;;;;;;;4914591;28;20202;-75
2024/01/15 09:32:32;;;;;;;29.13;15.43;;;;;;;;;;4910958;28;20202;-75
2024/01/15 09:34:58;;;;;;;29.33;14.97;;;;;;;;;;4922326;28;20206;-75
2024/01/15 09:37:25;;;;;;;26.00;14.37;;;;;;;;;;4926379;28;20626;-74
2024/01/15 09:39:51;;;;;;;26.70;14.63;;;;;;;;;;5022227;28;20214;-75
2024/01/15 09:42:18;;;;;;;33.03;15.93;;;;;;;;;;4924060;28;20881;-75
2024/01/15 09:44:45;;;;;;;29.67;16.20;;;;;;;;;;4910696;28;20279;-75
2024/01/15 09:47:12;;;;;;;26.20;15.60;;;;;;;;;;4930230;28;20627;-74
2024/01/15 09:49:40;;;;;;;30.90;15.23;;;;;;;;;;4924321;28;21215;-75
2024/01/15 09:52:07;;;;;;;29.47;15.20;;;;;;;;;;5022133;28;20222;-74
2024/01/15 09:54:34;;;;;;;29.23;16.07;;;;;;;;;;4909854;28;20217;-75
2024/01/15 09:57:03;;;;;;;32.03;16.33;;;;;;;;;;4922858;28;20269;-75
2024/01/15 09:59:30;;;;;;;27.97;15.27;;;;;;;;;;4908982;28;20234;-74
2024/01/15 10:01:57;;;;;;;28.07;14.93;;;;;;;;;;4909727;28;20214;-75
2024/01/15 10:04:23;;;;;;;29.93;15.97;;;;;;;;;;4935366;28;20206;-73
2024/01/15 10:06:51;;;;;;;27.23;15.10;;;;;;;;;;5024959;28;20178;-75
2024/01/15 10:09:17;;;;;;;28.93;16.03;;;;;;;;;;4922630;28;20182;-75
2024/01/15 10:11:44;;;;;;;24.57;14.10;;;;;;;;;;4926348;28;20183;-75
2024/01/15 10:14:14;;;;;;;30.20;16.17;;;;;;;;;;4927876;28;20210;-75
2024/01/15 10:16:41;;;;;;;26.13;14.53;;;;;;;;;;4925445;28;21201;-75
2024/01/15 10:19:08;;;;;;;23.60;13.60;;;;;;;;;;5021786;28;20194;-75
2024/01/15 10:21:37;;;;;;;25.50;14.30;;;;;;;;;;4926270;28;20674;-75
2024/01/15 10:24:04;;;;;;;26.37;15.10;;;;;;;;;;4929969;28;20202;-74
2024/01/15 10:26:31;;;;;;;24.70;14.07;;;;;;;;;;4928119;28;20240;-75
2024/01/15 10:28:59;;;;;;;27.97;14.07;;;;;;;;;;5008173;28;20684;-75
2024/01/15 10:31:28;;;;;;;26.23;14.00;;;;;;;;;;4927277;28;20197;-74
2024/01/15 10:33:54;;;;;;;26.17;14.10;;;;;;;;;;5028011;28;20294;-75
2024/01/15 10:36:21;;;;;;;27.47;14.30;;;;;;;;;;4929975;28;20765;-75
2024/01/15 10:38:47;;;;;;;25.20;14.27;;;;;;;;;;4931348;28;20281;-75
2024/01/15 10:41:13;;;;;;;26.37;13.97;;;;;;;;;;4928383;28;20194;-75
2024/01/15 10:43:42;;;;;;;24.83;13.97;;;;;;;;;;4937482;28;21477;-78
2024/01/15 10:46:09;;;;;;;25.47;15.17;;;;;;;;;;5027989;28;20690;-77
2024/01/15 10:48:35;;;;;;;27.60;15.13;;;;;;;;;;4926628;28;20182;-77
2024/01/15 10:51:10;;;;;;;28.63;14.13;;;;;;;;;;4932199;28;20236;-77
2024/01/15 10:53:36;;;;;;;29.93;14.90;;;;;;;;;;4929302;28;20222;-77
2024/01/15 10:56:03;;;;;;;27.60;15.47;;;;;;;;;;4931965;28;20182;-77
2024/01/15 10:58:31;;;;;;;24.23;15.47;;;;;;;;;;4927409;28;20668;-78
2024/01/15 11:00:58;;;;;;;25.77;15.07;;;;;;;;;;5037893;28;20643;-77
2024/01/15 11:03:24;;;;;;;23.67;14.13;;;;;;;;;;4931567;28;20214;-77
2024/01/15 11:05:50;;;;;;;22.40;13.53;;;;;;;;;;4918391;28;20836;-77
2024/01/15 11:08:18;;;;;;;23.43;13.23;;;;;;;;;;4930311;28;20621;-77
2024/01/15 11:10:49;;;;;;;25.30;14.20;;;;;;;;;;4933185;28;22182;-77
2024/01/15 11:13:43;;;;;;;23.07;13.83;;;;;;;;;;4991037;28;20190;-76
2024/01/15 11:16:13;;;;;;;23.20;13.53;;;;;;;;;;5021807;28;20198;-77
2024/01/15 11:18:57;;;;;;;23.07;13.90;;;;;;;;;;4925712;28;20368;-77
2024/01/15 11:21:25;;;;;;;27.23;14.33;;;;;;;;;;4933024;28;20681;-77
2024/01/15 11:23:59;;;;;;;31.93;15.93;;;;;;;;;;4936293;28;20329;-77
2024/01/15 11:26:33;;;;;;;24.53;14.70;;;;;;;;;;4932819;28;20254;-77
2024/01/15 11:29:00;;;;;;;20.53;12.33;;;;;;;;;;4930784;28;20190;-80
2024/01/15 11:31:50;;;;;;;25.47;13.37;;;;;;;;;;4912373;28;20281;-74
2024/01/15 11:34:16;;;;;;;25.13;13.83;;;;;;;;;;5003681;28;20223;-73
2024/01/15 11:36:51;;;;;;;23.90;14.17;;;;;;;;;;4965307;28;20186;-75
2024/01/15 11:39:30;;;;;;;24.27;14.23;;;;;;;;;;4928052;28;20704;-75
2024/01/15 11:41:57;;;;;;;20.73;11.83;;;;;;;;;;4930285;28;20725;-75
2024/01/15 11:44:23;;;;;;;23.27;13.33;;;;;;;;;;4928348;28;20282;-77
2024/01/15 11:47:00;;;;;;;21.83;12.43;;;;;;;;;;4926876;28;20236;-76
2024/01/15 11:49:54;;;;;;;24.30;13.27;;;;;;;;;;4932480;28;20267;-77
2024/01/15 11:52:21;;;;;;;26.73;14.27;;;;;;;;;;4940513;28;20186;-75
2024/01/15 11:54:53;;;;;;;24.60;13.50;;;;;;;;;;4986077;28;20635;-76
2024/01/15 11:57:27;;;;;;;20.77;13.17;;;;;;;;;;4946566;28;20190;-76
2024/01/15 11:59:53;;;;;;;21.90;13.43;;;;;;;;;;4928645;28;20747;-76
2024/01/15 12:02:19;;;;;;;21.93;12.37;;;;;;;;;;4930656;28;20186;-75
2024/01/15 12:04:45;;;;;;;21.70;11.20;;;;;;;;;;4929862;28;20206;-75
2024/01/15 12:07:11;;;;;;;17.73;10.73;;;;;;;;;;5026014;28;20194;-77
2024/01/15 12:09:44;;;;;;;16.13;10.37;;;;;;;;;;4927439;28;20195;-77
2024/01/15 12:12:14;;;;;;;15.40;10.37;;;;;;;;;;4927707;28;20187;-75
2024/01/15 12:14:40;;;;;;;17.80;10.67;;;;;;;;;;4925946;28;20206;-75
2024/01/15 12:17:07;;;;;;;19.53;11.33;;;;;;;;;;5005754;28;20886;-76
2024/01/15 12:19:34;;;;;;;20.60;12.23;;;;;;;;;;4931197;28;21106;-75
2024/01/15 12:22:00;;;;;;;21.87;11.97;;;;;;;;;;5023109;28;20553;-75
2024/01/15 12:24:26;;;;;;;20.03;10.27;;;;;;;;;;4932279;28;20662;-75
2024/01/15 12:26:52;;;;;;;17.20;10.63;;;;;;;;;;4933353;28;20175;-75
2024/01/15 12:29:19;;;;;;;19.37;11.60;;;;;;;;;;4927283;28;20725;-75
2024/01/15 12:31:47;;;;;;;16.57;10.40;;;;;;;;;;4916573;28;21735;-75
2024/01/15 12:34:14;;;;;;;15.07;9.70;;;;;;;;;;5004359;28;20831;-73
2024/01/15 12:36:41;;;;;;;14.53;9.30;;;;;;;;;;4944076;28;20639;-75
2024/01/15 12:39:11;;;;;;;15.83;9.63;;;;;;;;;;4931534;28;20738;-75
2024/01/15 12:41:39;;;;;;;18.73;11.37;;;;;;;;;;4934756;28;20257;-75
2024/01/15 12:44:05;;;;;;;21.13;11.33;;;;;;;;;;4930702;28;20198;-75
2024/01/15 12:46:32;;;;;;;18.10;11.57;;;;;;;;;;4932485;28;20719;-74
2024/01/15 12:48:58;;;;;;;20.50;12.80;;;;;;;;;;5021991;28;20183;-72
2024/01/15 12:51:27;;;;;;;16.27;10.33;;;;;;;;;;4972801;28;20182;-74
2024/01/15 12:53:53;;;;;;;17.70;10.47;;;;;;;;;;4932488;28;20202;-73
2024/01/15 12:56:19;;;;;;;17.20;10.73;;;;;;;;;;4945651;28;20182;-73
2024/01/15 12:58:46;;;;;;;17.17;11.40;;;;;;;;;;4936588;28;23617;-73
2024/01/15 13:01:13;;;;;;;15.80;10.40;;;;;;;;;;5025307;28;20206;-78
2024/01/15 13:03:39;;;;;;;16.80;10.67;;;;;;;;;;4935500;28;20217;-76
2024/01/15 13:06:05;;;;;;;15.17;10.13;;;;;;;;;;4936862;28;20183;-76
2024/01/15 13:08:31;;;;;;;18.60;12.33;;;;;;;;;;4978960;28;20230;-76
2024/01/15 13:10:57;;;;;;;16.53;11.23;;;;;;;;;;4937802;28;20664;-76
2024/01/15 13:13:24;;;;;;;15.90;10.50;;;;;;;;;;4957575;28;21177;-74
2024/01/15 13:15:50;;;;;;;16.53;10.40;;;;;;;;;;5001244;28;20232;-76
2024/01/15 13:18:17;;;;;;;17.30;10.13;;;;;;;;;;4934434;28;20190;-75
2024/01/15 13:20:43;;;;;;;15.13;10.13;;;;;;;;;;4995301;28;20221;-75
2024/01/15 13:23:09;;;;;;;14.73;9.87;;;;;;;;;;4939544;28;20195;-76
2024/01/15 13:25:37;;;;;;;17.17;11.10;;;;;;;;;;4980776;28;20784;-76
2024/01/15 13:28:04;;;;;;;16.80;10.83;;;;;;;;;;5022902;28;20627;-76
2024/01/15 13:30:31;;;;;;;16.13;10.10;;;;;;;;;;4936721;28;20198;-75
2024/01/15 13:32:58;;;;;;;14.80;10.23;;;;;;;;;;4932495;28;20183;-76
2024/01/15 13:35:25;;;;;;;15.13;9.77;;;;;;;;;;4930485;28;20221;-76
2024/01/15 13:37:51;;;;;;;17.67;10.43;;;;;;;;;;4935772;28;20190;-76
2024/01/15 13:40:19;;;;;;;16.17;10.37;;;;;;;;;;5023679;28;20775;-81
2024/01/15 13:42:47;;;;;;;16.70;10.30;;;;;;;;;;4994860;28;20209;-76
2024/01/15 13:45:16;;;;;;;16.20;10.03;;;;;;;;;;4931472;28;20281;-75
2024/01/15 13:47:45;;;;;;;17.10;10.57;;;;;;;;;;4936754;28;20541;-75
2024/01/15 13:50:11;;;;;;;17.70;10.37;;;;;;;;;;4972990;28;20178;-76
2024/01/15 13:52:38;;;;;;;16.53;10.03;;;;;;;;;;4931467;28;22022;-76
2024/01/15 13:55:04;;;;;;;14.50;9.60;;;;;;;;;;5022553;28;20558;-75
2024/01/15 13:57:30;;;;;;;21.40;12.53;;;;;;;;;;4934209;28;20193;-76
2024/01/15 13:59:56;;;;;;;19.03;10.90;;;;;;;;;;4934838;28;20237;-76
2024/01/15 14:02:22;;;;;;;15.47;10.10;;;;;;;;;;4937393;28;20186;-75
2024/01/15 14:04:49;;;;;;;16.53;10.40;;;;;;;;;;4935202;28;20203;-75
2024/01/15 14:07:15;;;;;;;16.33;9.83;;;;;;;;;;5026466;28;20182;-72
2024/01/15 14:09:42;;;;;;;16.53;9.90;;;;;;;;;;4974143;28;20210;-75
2024/01/15 14:12:08;;;;;;;15.73;10.40;;;;;;;;;;4938604;28;20189;-75
2024/01/15 14:14:34;;;;;;;16.40;9.20;;;;;;;;;;4931809;28;20225;-75
2024/01/15 14:17:00;;;;;;;15.33;9.13;;;;;;;;;;4940459;28;20183;-73